Denmark, Wisconsin
Current Conditions -  °F | °C
As of 1:56 PM on Thursday 18 Dec 2014 (Local Time) from KMTW Reporting Station
Overcast Overcast  
Wind Chill: 20°   Ceiling: 1500
Heat Index: 29°   Visibility: 10mi
Dew Point: 24°   Wind: 9mph
Humidity: 82%   Direction: 320°NW
Pressure: 30.23"   Gusts: NA
Location:  44.35°N, 87.83°W
Report Text: KMTW 181956Z AUTO 32008KT 10SM OVC015 M02/M04 A3023 RMK AO2 SLP263 T10171044 FZRANO
Loading
Personal Weather Stations






























Interactive Weather Map New forecast layout! Learn more

10-Day Weather Forecast

Advertisements
Track Severe Weather on mobile